Time;durP1;ratioP1;P1;durP2;ratioP2;P2;SDS_P1;SDS_P2;PMS_P1;PMS_P2;Temp;Humidity;BMP_temperature;BMP_pressure;BME280_temperature;BME280_humidity;BME280_pressure;Samples;Min_cycle;Max_cycle;Signal;HPM_P1;HPM_P2
2023/02/08 00:00:41;;;;;;;8.48;4.38;;;0.50;99.90;;;;;;4952863;28;20087;-81
2023/02/08 00:03:08;;;;;;;6.25;4.15;;;0.40;99.90;;;;;;4969216;28;20146;-82
2023/02/08 00:05:34;;;;;;;7.88;4.90;;;0.40;99.90;;;;;;4937907;29;20061;-81
2023/02/08 00:08:02;;;;;;;6.47;4.20;;;0.40;99.90;;;;;;4969896;28;20051;-81
2023/02/08 00:10:28;;;;;;;8.23;5.20;;;0.30;99.90;;;;;;4938301;28;20066;-81
2023/02/08 00:12:55;;;;;;;6.53;4.45;;;0.30;99.90;;;;;;4952720;28;20173;-81
2023/02/08 00:15:22;;;;;;;6.65;4.13;;;0.30;99.90;;;;;;4953736;28;20047;-81
2023/02/08 00:17:48;;;;;;;6.80;4.68;;;0.20;99.90;;;;;;4969018;28;20069;-80
2023/02/08 00:20:16;;;;;;;8.65;5.20;;;0.30;99.90;;;;;;4595711;28;9999926;-81
2023/02/08 00:22:42;;;;;;;7.50;4.13;;;0.20;99.90;;;;;;4941172;29;20192;-81
2023/02/08 00:25:09;;;;;;;6.32;4.13;;;0.20;99.90;;;;;;4971677;28;20062;-83
2023/02/08 00:27:36;;;;;;;7.32;4.68;;;0.20;99.90;;;;;;4940545;29;20130;-83
2023/02/08 00:30:03;;;;;;;8.13;4.63;;;0.10;99.90;;;;;;4938363;29;20566;-83
2023/02/08 00:32:30;;;;;;;8.13;4.82;;;0.10;99.90;;;;;;4908596;29;20438;-83
2023/02/08 00:34:57;;;;;;;7.60;4.72;;;0.10;99.90;;;;;;4941712;28;21015;-83
2023/02/08 00:37:24;;;;;;;7.32;4.13;;;0.00;99.90;;;;;;4959889;28;20418;-83
2023/02/08 00:39:50;;;;;;;6.25;4.03;;;0.00;99.90;;;;;;4974747;28;20142;-83
2023/02/08 00:42:17;;;;;;;6.72;3.70;;;-0.10;99.90;;;;;;4942681;29;20047;-80
2023/02/08 00:44:44;;;;;;;5.57;3.60;;;-0.10;99.90;;;;;;4925944;29;20062;-83
2023/02/08 00:47:11;;;;;;;5.90;4.20;;;0.00;99.90;;;;;;4959508;28;20146;-82
2023/02/08 00:49:37;;;;;;;7.07;4.45;;;-0.10;99.90;;;;;;4927025;29;20066;-80
2023/02/08 00:52:04;;;;;;;5.70;3.88;;;0.00;99.90;;;;;;4943596;29;20190;-81
2023/02/08 00:54:31;;;;;;;7.07;4.00;;;0.00;99.90;;;;;;4942396;28;20055;-81
2023/02/08 00:56:58;;;;;;;6.93;4.40;;;-0.10;99.90;;;;;;4927332;28;20130;-81
2023/02/08 00:59:26;;;;;;;6.45;4.00;;;-0.10;99.90;;;;;;4941461;28;20071;-81
2023/02/08 01:01:53;;;;;;;5.47;3.72;;;-0.10;99.90;;;;;;4944254;28;20096;-81
2023/02/08 01:04:20;;;;;;;6.20;3.67;;;-0.10;99.90;;;;;;4958355;28;20062;-80
2023/02/08 01:06:47;;;;;;;6.75;4.22;;;-0.10;99.90;;;;;;4943118;29;20059;-81
2023/02/08 01:09:14;;;;;;;6.38;4.05;;;-0.20;99.90;;;;;;4958926;28;20371;-81
2023/02/08 01:11:40;;;;;;;5.53;3.65;;;-0.20;99.90;;;;;;4958820;28;20463;-81
2023/02/08 01:14:07;;;;;;;5.28;3.40;;;-0.30;99.90;;;;;;4973525;28;20498;-81
2023/02/08 01:16:36;;;;;;;4.90;3.13;;;-0.30;99.90;;;;;;4959455;28;20106;-81
2023/02/08 01:19:03;;;;;;;4.57;3.22;;;-0.40;99.90;;;;;;4958166;28;20055;-81
2023/02/08 01:21:32;;;;;;;6.35;3.53;;;-0.30;99.90;;;;;;4958700;28;20066;-81
2023/02/08 01:24:00;;;;;;;7.18;3.47;;;-0.30;99.90;;;;;;4974198;28;20051;-80
2023/02/08 01:26:27;;;;;;;6.60;3.60;;;-0.30;99.90;;;;;;4958083;28;20209;-81
2023/02/08 01:28:54;;;;;;;4.68;3.28;;;-0.30;99.90;;;;;;4957236;28;20086;-81
2023/02/08 01:31:31;;;;;;;4.90;3.50;;;-0.40;99.90;;;;;;4958642;28;20118;-81
2023/02/08 01:33:58;;;;;;;4.93;3.40;;;-0.40;99.90;;;;;;4941917;29;20047;-81
2023/02/08 01:36:26;;;;;;;4.97;3.33;;;-0.50;99.90;;;;;;4958659;28;20121;-81
2023/02/08 01:38:55;;;;;;;6.13;3.97;;;-0.40;99.90;;;;;;4957585;28;20066;-81
2023/02/08 01:41:24;;;;;;;5.50;3.95;;;-0.40;99.90;;;;;;4973886;28;20173;-81
2023/02/08 01:44:11;;;;;;;6.85;3.33;;;-0.50;99.90;;;;;;4956449;28;20051;-81
2023/02/08 01:46:44;;;;;;;4.55;3.38;;;-0.40;99.90;;;;;;4942297;28;20094;-81
2023/02/08 01:49:28;;;;;;;6.63;3.67;;;-0.40;99.90;;;;;;4926448;29;20051;-81
2023/02/08 01:52:08;;;;;;;5.93;3.67;;;-0.40;99.90;;;;;;4957361;28;20554;-81
2023/02/08 01:54:39;;;;;;;5.32;3.60;;;-0.40;99.90;;;;;;4942807;29;20138;-81
2023/02/08 01:57:06;;;;;;;5.70;3.58;;;-0.50;99.90;;;;;;4943011;28;20086;-81
2023/02/08 01:59:41;;;;;;;6.55;3.88;;;-0.50;99.90;;;;;;4941045;29;20082;-80
2023/02/08 02:02:10;;;;;;;7.88;3.90;;;-0.50;99.90;;;;;;4956969;28;20051;-81
2023/02/08 02:04:37;;;;;;;7.65;4.10;;;-0.50;99.90;;;;;;4942129;28;20062;-80
2023/02/08 02:07:04;;;;;;;5.22;3.65;;;-0.50;99.90;;;;;;4958654;28;20141;-82
2023/02/08 02:09:37;;;;;;;5.68;3.65;;;-0.60;99.90;;;;;;4957744;28;20074;-82
2023/02/08 02:12:04;;;;;;;5.20;3.53;;;-0.60;99.90;;;;;;4941916;29;20079;-82
2023/02/08 02:14:31;;;;;;;5.57;3.85;;;-0.60;99.90;;;;;;4939895;28;20210;-83
2023/02/08 02:17:01;;;;;;;5.65;3.67;;;-0.60;99.90;;;;;;4941880;29;20294;-81
2023/02/08 02:19:33;;;;;;;6.95;3.60;;;-0.60;99.90;;;;;;4940758;29;20122;-82
2023/02/08 02:22:17;;;;;;;4.17;3.23;;;-0.60;99.90;;;;;;4943455;28;20051;-82
2023/02/08 02:24:47;;;;;;;5.03;3.60;;;-0.60;99.90;;;;;;4969997;28;20051;-82
2023/02/08 02:27:23;;;;;;;5.78;3.47;;;-0.60;99.90;;;;;;4943569;28;20055;-81
2023/02/08 02:30:11;;;;;;;4.55;3.15;;;-0.70;99.90;;;;;;4925096;29;20050;-81
2023/02/08 02:32:44;;;;;;;4.44;3.52;;;-0.70;99.90;;;;;;4260422;28;10000648;-80
2023/02/08 02:35:32;;;;;;;4.00;2.38;;;-0.80;99.90;;;;;;4978692;28;20079;-81
2023/02/08 02:38:09;;;;;;;4.72;3.40;;;-0.80;99.90;;;;;;4934600;28;20081;-80
2023/02/08 02:41:04;;;;;;;4.78;3.92;;;-0.80;99.90;;;;;;4981087;28;20051;-80
2023/02/08 02:43:45;;;;;;;5.75;3.17;;;-0.90;99.90;;;;;;4945723;29;20508;-81
2023/02/08 02:46:24;;;;;;;5.78;3.45;;;-0.90;99.90;;;;;;4976648;28;20589;-81
2023/02/08 02:49:03;;;;;;;5.32;3.40;;;-0.90;99.90;;;;;;4619380;28;10000566;-81
2023/02/08 02:51:39;;;;;;;5.55;3.25;;;-0.90;99.90;;;;;;4979594;28;20146;-80
2023/02/08 02:54:07;;;;;;;6.32;3.90;;;-0.90;99.90;;;;;;4978621;28;20154;-81
2023/02/08 02:56:36;;;;;;;6.88;3.50;;;-1.00;99.90;;;;;;4978527;28;20051;-81
2023/02/08 02:59:07;;;;;;;5.97;3.40;;;-1.00;99.90;;;;;;4963416;28;20054;-81
2023/02/08 03:01:34;;;;;;;5.50;3.00;;;-1.10;99.90;;;;;;4966862;28;20059;-81
2023/02/08 03:04:17;;;;;;;6.88;2.85;;;-1.10;99.90;;;;;;4946034;29;20134;-81
2023/02/08 03:06:50;;;;;;;6.38;3.80;;;-1.20;99.90;;;;;;4945867;29;20073;-80
2023/02/08 03:09:35;;;;;;;5.43;2.67;;;-1.20;99.90;;;;;;4946580;29;20054;-81
2023/02/08 03:12:33;;;;;;;5.13;2.60;;;-1.10;99.90;;;;;;4946761;28;20416;-80
2023/02/08 03:15:26;;;;;;;5.25;2.97;;;-1.20;99.90;;;;;;4960334;28;20055;-81
2023/02/08 03:18:17;;;;;;;5.10;3.15;;;-1.30;99.90;;;;;;4947595;28;20063;-81
2023/02/08 03:21:13;;;;;;;5.07;3.30;;;-1.30;99.90;;;;;;4946722;29;20054;-81
2023/02/08 03:23:47;;;;;;;6.43;3.67;;;-1.20;99.90;;;;;;4947395;28;20055;-80
2023/02/08 03:26:31;;;;;;;4.70;3.15;;;-1.30;99.90;;;;;;4961482;28;20085;-80
2023/02/08 03:29:19;;;;;;;3.83;2.25;;;-1.30;99.90;;;;;;4944826;29;20070;-81
2023/02/08 03:31:57;;;;;;;4.95;3.15;;;-1.30;99.90;;;;;;4963339;28;20051;-79
2023/02/08 03:34:37;;;;;;;6.18;3.35;;;-1.30;99.90;;;;;;4946630;28;20546;-80
2023/02/08 03:37:10;;;;;;;4.38;2.72;;;-1.30;99.90;;;;;;4978178;28;20055;-80
2023/02/08 03:39:37;;;;;;;5.60;3.33;;;-1.30;99.90;;;;;;4932583;29;20051;-80
2023/02/08 03:42:07;;;;;;;5.57;3.10;;;-1.30;99.90;;;;;;4939274;29;20139;-80
2023/02/08 03:44:43;;;;;;;5.90;3.30;;;-1.20;99.90;;;;;;4961509;28;20041;-80
2023/02/08 03:47:09;;;;;;;6.28;3.42;;;-1.20;99.90;;;;;;4962181;28;20181;-81
2023/02/08 03:49:36;;;;;;;5.68;3.90;;;-1.20;99.90;;;;;;4948062;28;20050;-80
2023/02/08 03:52:05;;;;;;;4.55;2.78;;;-1.20;99.90;;;;;;4962488;28;20047;-81
2023/02/08 03:54:35;;;;;;;5.60;3.58;;;-1.20;99.90;;;;;;4962287;28;20430;-80
2023/02/08 03:57:18;;;;;;;7.47;3.58;;;-1.30;99.90;;;;;;4945396;28;20051;-81
2023/02/08 03:59:53;;;;;;;5.45;3.40;;;-1.40;99.90;;;;;;4945497;28;20426;-80
2023/02/08 04:02:20;;;;;;;4.35;2.95;;;-1.40;99.90;;;;;;4962709;28;20059;-80
2023/02/08 04:04:48;;;;;;;6.50;3.30;;;-1.40;99.90;;;;;;4930252;29;20102;-80
2023/02/08 04:07:16;;;;;;;5.50;3.40;;;-1.40;99.90;;;;;;4930117;28;20059;-80
2023/02/08 04:09:43;;;;;;;5.03;2.90;;;-1.50;99.90;;;;;;4931806;29;20232;-81
2023/02/08 04:12:10;;;;;;;5.85;3.13;;;-1.40;99.90;;;;;;4981715;28;20146;-82
2023/02/08 04:14:36;;;;;;;6.88;3.25;;;-1.50;99.90;;;;;;4948933;28;20055;-82
2023/02/08 04:17:03;;;;;;;4.72;3.08;;;-1.50;99.90;;;;;;4965625;28;20047;-82
2023/02/08 04:19:30;;;;;;;4.93;3.38;;;-1.50;99.90;;;;;;4965158;28;20067;-80
2023/02/08 04:21:57;;;;;;;5.97;3.25;;;-1.40;99.90;;;;;;4965790;28;20494;-83
2023/02/08 04:24:24;;;;;;;4.40;2.88;;;-1.50;99.90;;;;;;4965270;28;20055;-82
2023/02/08 04:26:51;;;;;;;5.80;4.32;;;-1.50;99.90;;;;;;4948821;29;20514;-82
2023/02/08 04:29:18;;;;;;;4.88;2.90;;;-1.40;99.90;;;;;;4963858;28;20090;-81
2023/02/08 04:31:44;;;;;;;5.28;2.85;;;-1.60;99.90;;;;;;4949300;29;20668;-81
2023/02/08 04:34:11;;;;;;;4.47;2.90;;;-1.60;99.90;;;;;;4964631;28;20051;-80
2023/02/08 04:36:38;;;;;;;5.18;3.13;;;-1.60;99.90;;;;;;4981115;28;20527;-82
2023/02/08 04:39:05;;;;;;;6.05;2.78;;;-1.60;99.90;;;;;;4964826;28;20114;-82
2023/02/08 04:41:32;;;;;;;4.28;2.63;;;-1.70;99.90;;;;;;4948614;29;20059;-81
2023/02/08 04:43:58;;;;;;;4.57;2.80;;;-1.70;99.90;;;;;;4947623;29;20062;-81
2023/02/08 04:46:25;;;;;;;3.50;2.17;;;-1.60;99.90;;;;;;4965361;28;20090;-81
2023/02/08 04:48:52;;;;;;;4.88;2.50;;;-1.70;99.90;;;;;;4964520;28;20090;-81
2023/02/08 04:51:19;;;;;;;5.10;2.47;;;-1.70;99.90;;;;;;4964870;28;20142;-82
2023/02/08 04:53:46;;;;;;;3.70;2.05;;;-1.80;99.90;;;;;;4948466;28;20062;-82
2023/02/08 04:56:13;;;;;;;3.55;2.10;;;-1.70;99.90;;;;;;4949186;29;20164;-81
2023/02/08 04:58:40;;;;;;;3.85;2.45;;;-1.80;99.90;;;;;;4979788;28;20058;-81
2023/02/08 05:01:07;;;;;;;4.45;2.20;;;-1.90;99.90;;;;;;4964654;28;20059;-82
2023/02/08 05:03:34;;;;;;;3.75;2.20;;;-1.90;99.90;;;;;;4980060;28;20464;-82
2023/02/08 05:06:01;;;;;;;3.25;2.28;;;-1.90;99.90;;;;;;4964791;28;20129;-82
2023/02/08 05:08:28;;;;;;;3.65;2.10;;;-1.90;99.90;;;;;;4980438;28;20640;-82
2023/02/08 05:10:54;;;;;;;6.20;2.60;;;-2.00;99.90;;;;;;4964680;28;20094;-82
2023/02/08 05:13:21;;;;;;;3.20;2.00;;;-1.90;99.90;;;;;;4962774;28;20134;-82
2023/02/08 05:15:48;;;;;;;4.63;2.17;;;-1.90;99.90;;;;;;4964904;28;20055;-82
2023/02/08 05:18:14;;;;;;;3.13;1.95;;;-2.00;99.90;;;;;;4980722;28;20055;-82
2023/02/08 05:20:41;;;;;;;3.17;1.98;;;-2.00;99.90;;;;;;4963410;28;20050;-81
2023/02/08 05:23:08;;;;;;;4.32;2.47;;;-2.00;99.90;;;;;;4964026;28;20058;-82
2023/02/08 05:25:36;;;;;;;3.97;2.40;;;-1.90;99.90;;;;;;4948723;29;20057;-82
2023/02/08 05:28:03;;;;;;;4.22;2.60;;;-1.90;99.90;;;;;;4946385;29;20138;-81
2023/02/08 05:30:30;;;;;;;3.45;2.03;;;-1.90;99.90;;;;;;4964331;28;20055;-82
2023/02/08 05:32:57;;;;;;;3.92;2.83;;;-1.90;99.90;;;;;;4963088;28;20047;-81
2023/02/08 05:35:24;;;;;;;4.00;2.10;;;-1.90;99.90;;;;;;4931040;29;20059;-82
2023/02/08 05:37:50;;;;;;;4.55;2.67;;;-1.90;99.90;;;;;;4952178;28;20146;-83
2023/02/08 05:40:17;;;;;;;3.83;2.10;;;-1.80;99.90;;;;;;4949875;28;20047;-82
2023/02/08 05:42:44;;;;;;;3.55;2.17;;;-1.80;99.90;;;;;;4949375;28;20058;-81
2023/02/08 05:45:11;;;;;;;2.90;1.92;;;-1.90;99.90;;;;;;4947641;29;20043;-82
2023/02/08 05:47:37;;;;;;;3.60;2.15;;;-2.00;99.90;;;;;;4980845;28;20130;-82
2023/02/08 05:50:05;;;;;;;4.05;2.67;;;-2.00;99.90;;;;;;4960250;28;20153;-82
2023/02/08 05:52:31;;;;;;;3.05;2.20;;;-2.00;99.90;;;;;;4962351;28;20457;-80
2023/02/08 05:54:58;;;;;;;4.70;2.40;;;-1.90;99.90;;;;;;4961975;28;20226;-82
2023/02/08 05:57:25;;;;;;;3.67;2.03;;;-2.00;99.90;;;;;;4949883;28;20051;-81
2023/02/08 05:59:51;;;;;;;4.40;2.10;;;-2.00;99.90;;;;;;4954993;28;20067;-81
2023/02/08 06:02:18;;;;;;;3.42;2.28;;;-2.00;99.90;;;;;;4947964;28;20058;-81
2023/02/08 06:04:45;;;;;;;4.68;2.67;;;-2.00;99.90;;;;;;4954533;28;20134;-81
2023/02/08 06:07:12;;;;;;;4.25;2.83;;;-2.00;99.90;;;;;;4958814;28;20549;-82
2023/02/08 06:09:38;;;;;;;2.60;2.00;;;-2.00;99.90;;;;;;4945417;29;20047;-82
2023/02/08 06:12:06;;;;;;;5.22;2.47;;;-2.10;99.90;;;;;;4961601;28;20055;-82
2023/02/08 06:14:32;;;;;;;4.78;2.67;;;-2.10;99.90;;;;;;4945607;29;20043;-81
2023/02/08 06:16:59;;;;;;;4.13;2.50;;;-2.10;99.90;;;;;;4945322;29;20051;-81
2023/02/08 06:19:26;;;;;;;4.18;2.00;;;-2.20;99.90;;;;;;4945689;28;20139;-81
2023/02/08 06:21:52;;;;;;;2.95;2.35;;;-2.20;99.90;;;;;;4945066;29;20065;-80
2023/02/08 06:24:19;;;;;;;3.67;1.88;;;-2.30;99.90;;;;;;4942485;28;20073;-81
2023/02/08 06:26:46;;;;;;;4.20;2.25;;;-2.30;99.90;;;;;;4953852;28;20525;-80
2023/02/08 06:29:13;;;;;;;5.05;2.17;;;-2.20;99.90;;;;;;4947053;28;20541;-80
2023/02/08 06:31:39;;;;;;;2.95;1.70;;;-2.20;99.90;;;;;;4960491;28;20050;-80
2023/02/08 06:34:07;;;;;;;3.78;2.35;;;-2.20;99.90;;;;;;4976648;28;20134;-80
2023/02/08 06:36:33;;;;;;;3.53;2.20;;;-2.20;99.90;;;;;;4944003;29;20138;-79
2023/02/08 06:39:00;;;;;;;3.53;2.30;;;-2.10;99.90;;;;;;4927807;28;20142;-80
2023/02/08 06:41:27;;;;;;;4.38;2.35;;;-2.10;99.90;;;;;;4943629;29;20408;-79
2023/02/08 06:43:54;;;;;;;3.60;2.47;;;-2.10;99.90;;;;;;4974407;28;20055;-80
2023/02/08 06:46:20;;;;;;;5.18;2.45;;;-2.00;99.90;;;;;;4944001;28;20534;-79
2023/02/08 06:48:47;;;;;;;6.53;2.53;;;-2.10;99.90;;;;;;4971176;28;20535;-79
2023/02/08 06:51:14;;;;;;;4.97;2.60;;;-2.10;99.90;;;;;;4946506;28;20091;-79
2023/02/08 06:53:41;;;;;;;4.05;2.33;;;-2.20;99.90;;;;;;4971013;28;20058;-79
2023/02/08 06:56:07;;;;;;;4.43;2.72;;;-2.20;99.90;;;;;;4923492;29;20102;-79
2023/02/08 06:58:34;;;;;;;3.58;2.00;;;-2.20;99.90;;;;;;4953154;28;20062;-80
2023/02/08 07:01:01;;;;;;;4.47;2.25;;;-2.30;99.90;;;;;;4971579;28;20059;-80
2023/02/08 07:03:28;;;;;;;5.18;2.55;;;-2.40;99.90;;;;;;4971716;28;20070;-80
2023/02/08 07:05:55;;;;;;;5.72;2.58;;;-2.30;99.90;;;;;;4955972;28;20047;-80
2023/02/08 07:08:32;;;;;;;4.40;2.20;;;-2.30;99.90;;;;;;4968397;28;20061;-80
2023/02/08 07:10:59;;;;;;;2.97;1.92;;;-2.30;99.90;;;;;;4938081;29;20047;-80
2023/02/08 07:13:26;;;;;;;3.38;2.10;;;-2.30;99.90;;;;;;4938143;29;20143;-79
2023/02/08 07:15:52;;;;;;;3.03;2.30;;;-2.40;99.90;;;;;;4954178;28;20150;-80
2023/02/08 07:18:19;;;;;;;3.40;2.10;;;-2.40;99.90;;;;;;4969585;28;20047;-79
2023/02/08 07:20:47;;;;;;;3.88;2.10;;;-2.40;99.90;;;;;;4935023;29;20139;-78
2023/02/08 07:23:14;;;;;;;3.92;2.47;;;-2.40;99.90;;;;;;4966872;28;20142;-79
2023/02/08 07:25:41;;;;;;;3.10;2.33;;;-2.50;99.90;;;;;;4937952;29;20698;-79
2023/02/08 07:28:07;;;;;;;3.70;2.20;;;-2.50;99.90;;;;;;4966315;28;20439;-79
2023/02/08 07:30:35;;;;;;;3.47;2.03;;;-2.60;99.90;;;;;;4933942;28;20099;-79
2023/02/08 07:33:01;;;;;;;2.95;1.77;;;-2.60;99.90;;;;;;4969083;28;20410;-80
2023/02/08 07:35:28;;;;;;;2.83;1.60;;;-2.70;99.90;;;;;;4971097;28;20138;-79
2023/02/08 07:37:55;;;;;;;4.88;3.03;;;-2.60;99.90;;;;;;4949450;28;20056;-79
2023/02/08 07:40:21;;;;;;;2.85;1.75;;;-2.50;99.90;;;;;;4965890;28;20051;-79
2023/02/08 07:42:48;;;;;;;3.72;2.17;;;-2.40;99.90;;;;;;4937983;28;20051;-78
2023/02/08 07:45:15;;;;;;;3.17;1.85;;;-2.40;99.90;;;;;;4939336;28;20077;-79
2023/02/08 07:47:42;;;;;;;3.30;1.80;;;-2.40;99.90;;;;;;4973699;28;20051;-79
2023/02/08 07:50:09;;;;;;;3.95;1.92;;;-2.30;99.90;;;;;;4939506;28;20065;-79
2023/02/08 07:52:36;;;;;;;3.60;2.20;;;-2.30;99.90;;;;;;4973125;28;20134;-79
2023/02/08 07:55:02;;;;;;;3.67;2.20;;;-2.40;99.90;;;;;;4939697;29;20051;-79
2023/02/08 07:57:29;;;;;;;4.63;2.42;;;-2.40;99.90;;;;;;4935039;29;20060;-79
2023/02/08 07:59:56;;;;;;;3.17;1.92;;;-2.30;99.90;;;;;;4966416;28;20063;-79
2023/02/08 08:02:23;;;;;;;4.47;2.00;;;-2.40;99.90;;;;;;4932877;28;20524;-79
2023/02/08 08:04:52;;;;;;;2.80;1.75;;;-2.30;99.90;;;;;;4973044;28;20700;-79
2023/02/08 08:07:19;;;;;;;3.22;1.70;;;-2.30;99.90;;;;;;4942720;28;20059;-78
2023/02/08 08:09:46;;;;;;;3.05;2.15;;;-2.30;99.90;;;;;;4941680;28;20154;-80
2023/02/08 08:12:13;;;;;;;3.22;2.03;;;-2.30;99.90;;;;;;4973510;28;20166;-79
2023/02/08 08:14:39;;;;;;;2.95;1.95;;;-2.30;99.90;;;;;;4956051;28;20166;-80
2023/02/08 08:17:06;;;;;;;4.00;2.72;;;-2.30;99.90;;;;;;4937983;29;20079;-80
2023/02/08 08:19:33;;;;;;;2.67;1.60;;;-2.30;99.90;;;;;;4951647;28;20142;-80
2023/02/08 08:22:00;;;;;;;2.65;1.52;;;-2.30;99.90;;;;;;4969348;28;20096;-78
2023/02/08 08:24:26;;;;;;;3.58;1.65;;;-2.20;99.90;;;;;;4955482;28;20089;-80
2023/02/08 08:26:53;;;;;;;3.25;1.90;;;-2.10;99.90;;;;;;4948707;28;20054;-78
2023/02/08 08:29:20;;;;;;;3.20;1.80;;;-2.00;99.90;;;;;;4954941;28;20051;-79
2023/02/08 08:31:47;;;;;;;2.58;1.95;;;-1.90;99.90;;;;;;4939142;29;20079;-79
2023/02/08 08:34:14;;;;;;;3.25;2.20;;;-1.90;99.90;;;;;;4952767;28;20056;-79
2023/02/08 08:36:40;;;;;;;2.60;1.65;;;-1.80;99.90;;;;;;4937831;29;20548;-79
2023/02/08 08:39:07;;;;;;;3.00;1.90;;;-1.80;99.90;;;;;;4923759;29;20061;-80
2023/02/08 08:41:35;;;;;;;3.25;1.60;;;-1.70;99.90;;;;;;4944013;28;20043;-79
2023/02/08 08:44:02;;;;;;;3.30;2.50;;;-1.60;99.90;;;;;;4944258;28;20418;-79
2023/02/08 08:46:29;;;;;;;2.03;1.50;;;-1.60;99.90;;;;;;4937178;28;20060;-79
2023/02/08 08:48:56;;;;;;;3.60;2.08;;;-1.50;99.90;;;;;;4964371;28;20533;-78
2023/02/08 08:51:24;;;;;;;2.00;1.52;;;-1.50;99.90;;;;;;4951689;28;20439;-79
2023/02/08 08:53:50;;;;;;;3.15;1.70;;;-1.50;99.90;;;;;;4954931;28;20051;-79
2023/02/08 08:56:18;;;;;;;3.88;2.30;;;-1.40;99.90;;;;;;4941720;28;20146;-78
2023/02/08 08:58:44;;;;;;;3.78;2.20;;;-1.40;99.90;;;;;;4923408;29;20058;-78
2023/02/08 09:01:12;;;;;;;4.70;2.63;;;-1.40;99.90;;;;;;4940682;28;20666;-78
2023/02/08 09:03:39;;;;;;;2.78;1.67;;;-1.40;99.90;;;;;;4954272;28;20082;-79
2023/02/08 09:06:06;;;;;;;3.80;2.63;;;-1.40;99.90;;;;;;4971156;28;20102;-78
2023/02/08 09:08:33;;;;;;;3.55;2.10;;;-1.30;99.90;;;;;;4938876;28;20059;-78
2023/02/08 09:11:08;;;;;;;2.22;1.58;;;-1.20;99.90;;;;;;4940164;29;20082;-78
2023/02/08 09:13:35;;;;;;;2.90;1.85;;;-1.20;99.90;;;;;;4970968;28;20075;-79
2023/02/08 09:16:15;;;;;;;2.88;1.90;;;-1.20;99.90;;;;;;4955401;28;20074;-79
2023/02/08 09:18:43;;;;;;;3.00;1.95;;;-1.10;99.90;;;;;;4968939;28;20527;-79
2023/02/08 09:21:14;;;;;;;3.45;1.90;;;-1.00;99.90;;;;;;4953435;28;20146;-74
2023/02/08 09:23:41;;;;;;;2.25;1.50;;;-0.90;99.90;;;;;;4969957;28;20130;-75
2023/02/08 09:26:10;;;;;;;3.83;1.98;;;-0.80;99.90;;;;;;4953359;28;20154;-75
2023/02/08 09:28:37;;;;;;;3.30;2.10;;;-0.70;99.90;;;;;;4952687;28;20047;-75
2023/02/08 09:31:08;;;;;;;2.53;1.67;;;-0.60;99.90;;;;;;4939841;29;20411;-75
2023/02/08 09:33:34;;;;;;;2.88;2.00;;;-0.50;99.90;;;;;;4922541;29;20078;-75
2023/02/08 09:36:01;;;;;;;3.97;2.47;;;-0.50;99.90;;;;;;4940872;28;20059;-75
2023/02/08 09:38:28;;;;;;;3.65;1.85;;;-0.40;99.90;;;;;;4921915;29;20086;-75
2023/02/08 09:40:59;;;;;;;2.97;1.83;;;-0.30;99.90;;;;;;4948329;28;20114;-83
2023/02/08 09:43:42;;;;;;;2.22;1.52;;;-0.20;99.90;;;;;;4966349;28;20146;-74
2023/02/08 09:46:18;;;;;;;3.58;2.13;;;-0.20;99.90;;;;;;4954739;28;20161;-74
2023/02/08 09:48:45;;;;;;;3.72;1.98;;;-0.10;99.90;;;;;;4954498;28;20090;-73
2023/02/08 09:51:40;;;;;;;2.90;2.17;;;0.00;99.90;;;;;;4955289;28;20059;-73
2023/02/08 09:54:15;;;;;;;3.60;2.10;;;0.10;99.90;;;;;;4955168;28;20051;-73
2023/02/08 09:56:42;;;;;;;3.50;2.00;;;0.20;99.90;;;;;;4923511;29;20142;-73
2023/02/08 09:59:13;;;;;;;2.78;1.73;;;0.30;99.90;;;;;;4922383;29;20050;-75
2023/02/08 10:01:40;;;;;;;3.35;1.67;;;0.40;99.90;;;;;;4966046;28;20047;-73
2023/02/08 10:04:35;;;;;;;3.03;1.98;;;0.60;99.90;;;;;;4954622;28;20129;-73
2023/02/08 10:07:01;;;;;;;3.10;2.03;;;0.70;99.90;;;;;;4969132;28;20095;-73
2023/02/08 10:09:28;;;;;;;2.65;1.52;;;0.90;99.90;;;;;;4969298;28;20141;-73
2023/02/08 10:12:13;;;;;;;2.95;1.85;;;1.00;99.90;;;;;;4969435;28;20063;-73
2023/02/08 10:14:55;;;;;;;2.90;1.95;;;1.10;99.90;;;;;;4967665;28;20051;-73
2023/02/08 10:17:52;;;;;;;3.90;2.17;;;1.20;99.90;;;;;;4969931;28;20082;-72
2023/02/08 10:20:30;;;;;;;3.33;2.05;;;1.40;99.90;;;;;;4967002;28;20047;-75
2023/02/08 10:23:22;;;;;;;3.75;2.67;;;1.50;99.90;;;;;;4969501;28;20047;-72
2023/02/08 10:25:52;;;;;;;3.42;2.42;;;1.60;99.90;;;;;;4942492;28;20059;-73
2023/02/08 10:29:01;;;;;;;4.25;2.72;;;1.70;99.90;;;;;;4947080;28;20055;-74
2023/02/08 10:31:35;;;;;;;3.53;2.15;;;1.90;99.90;;;;;;4938659;29;20055;-75
2023/02/08 10:34:25;;;;;;;4.47;3.05;;;2.00;99.90;;;;;;4968870;28;20086;-74
2023/02/08 10:36:52;;;;;;;4.07;2.75;;;2.10;99.90;;;;;;4950440;28;20104;-74
2023/02/08 10:39:27;;;;;;;4.93;3.13;;;2.20;99.90;;;;;;4969365;28;20055;-74
2023/02/08 10:41:54;;;;;;;5.45;3.55;;;2.30;99.90;;;;;;4986444;28;20050;-74
2023/02/08 10:44:53;;;;;;;3.78;2.65;;;2.50;99.90;;;;;;4935123;28;20051;-77
2023/02/08 10:47:39;;;;;;;4.47;2.85;;;2.50;99.90;;;;;;4958715;28;20066;-74
2023/02/08 10:50:14;;;;;;;4.88;3.28;;;2.70;99.90;;;;;;4965738;28;20130;-84
2023/02/08 10:52:41;;;;;;;5.80;3.97;;;2.80;99.90;;;;;;4936429;28;20063;-76
2023/02/08 10:55:16;;;;;;;6.63;3.78;;;2.90;99.90;;;;;;4969826;28;20647;-77
2023/02/08 10:57:43;;;;;;;5.00;3.42;;;3.00;99.90;;;;;;4953184;28;20577;-73
2023/02/08 11:00:18;;;;;;;5.22;3.30;;;3.10;99.90;;;;;;4934813;29;20875;-78
2023/02/08 11:02:46;;;;;;;4.38;3.03;;;3.20;99.90;;;;;;4953953;28;20047;-78
2023/02/08 11:05:17;;;;;;;5.20;3.40;;;3.30;99.90;;;;;;4939840;29;20055;-78
2023/02/08 11:07:43;;;;;;;4.40;3.33;;;3.40;99.90;;;;;;4954753;28;20063;-79
2023/02/08 11:10:19;;;;;;;5.38;3.20;;;3.50;99.90;;;;;;4938075;29;20130;-77
2023/02/08 11:12:59;;;;;;;4.32;3.17;;;3.60;99.90;;;;;;4939166;28;20848;-77
2023/02/08 11:15:47;;;;;;;4.93;3.67;;;3.80;99.90;;;;;;4969836;28;20478;-79
2023/02/08 11:18:29;;;;;;;4.60;3.20;;;3.90;99.90;;;;;;4964238;28;20546;-78
2023/02/08 11:20:59;;;;;;;4.65;3.75;;;4.10;99.90;;;;;;4937039;28;20055;-78
2023/02/08 11:23:33;;;;;;;4.20;3.40;;;4.20;99.90;;;;;;4953144;28;20628;-78
2023/02/08 11:26:23;;;;;;;5.07;3.72;;;4.30;99.90;;;;;;4953911;28;20051;-77
2023/02/08 11:29:12;;;;;;;5.43;3.90;;;4.40;99.90;;;;;;4968045;28;20055;-77
2023/02/08 11:31:40;;;;;;;4.80;3.63;;;4.50;99.90;;;;;;4939563;29;20146;-77
2023/02/08 11:34:09;;;;;;;5.40;3.38;;;4.70;99.90;;;;;;4970640;28;20555;-78
2023/02/08 11:36:48;;;;;;;6.07;3.95;;;4.80;99.90;;;;;;4954281;28;20063;-78
2023/02/08 11:39:48;;;;;;;4.57;3.47;;;5.00;99.90;;;;;;4953405;28;20051;-78
2023/02/08 11:42:23;;;;;;;4.68;3.17;;;5.20;99.90;;;;;;4935666;29;20055;-77
2023/02/08 11:44:50;;;;;;;5.25;3.33;;;5.40;99.90;;;;;;4952225;28;20055;-78
2023/02/08 11:47:21;;;;;;;4.80;3.40;;;5.60;99.90;;;;;;4937723;29;20648;-78
2023/02/08 11:49:56;;;;;;;5.05;3.72;;;5.70;99.90;;;;;;4937302;28;20133;-78
2023/02/08 11:52:26;;;;;;;4.95;3.33;;;5.80;99.90;;;;;;4968601;28;20061;-79
2023/02/08 11:54:54;;;;;;;5.63;3.78;;;6.00;99.90;;;;;;4968503;28;20051;-78
2023/02/08 11:57:22;;;;;;;4.43;3.47;;;6.20;99.90;;;;;;4937921;29;20051;-78
2023/02/08 11:59:50;;;;;;;5.10;4.18;;;6.50;99.90;;;;;;4968267;28;20166;-78
2023/02/08 12:02:27;;;;;;;5.00;3.70;;;6.70;99.90;;;;;;4935286;28;20051;-79
2023/02/08 12:04:55;;;;;;;4.53;3.22;;;7.00;99.90;;;;;;4966350;28;20483;-79
2023/02/08 12:07:34;;;;;;;4.90;3.33;;;7.30;99.90;;;;;;4935951;28;20143;-78
2023/02/08 12:10:29;;;;;;;6.72;4.55;;;7.60;99.90;;;;;;4937313;28;20059;-78
2023/02/08 12:13:11;;;;;;;3.88;3.17;;;7.80;99.90;;;;;;4962956;28;20514;-77
2023/02/08 12:15:41;;;;;;;4.25;3.67;;;8.10;99.90;;;;;;4936288;28;20078;-78
2023/02/08 12:18:49;;;;;;;4.25;2.97;;;8.50;99.90;;;;;;4937114;29;20094;-78
2023/02/08 12:21:24;;;;;;;4.30;3.38;;;8.80;99.90;;;;;;4951147;28;20468;-78
2023/02/08 12:24:09;;;;;;;3.65;3.17;;;9.20;99.90;;;;;;4971754;28;20051;-78
2023/02/08 12:26:46;;;;;;;4.00;3.15;;;9.50;99.90;;;;;;4919680;29;20130;-78
2023/02/08 12:29:32;;;;;;;6.25;4.60;;;9.70;99.90;;;;;;4945684;28;20078;-78
2023/02/08 12:32:13;;;;;;;5.35;4.40;;;9.80;99.90;;;;;;4936993;29;20057;-78
2023/02/08 12:34:49;;;;;;;4.68;4.05;;;10.10;99.90;;;;;;4937660;29;20131;-78
2023/02/08 12:43:36;;;;;;;4.40;3.08;;;10.80;98.30;;;;;;4945227;28;20067;-78
2023/02/08 12:46:31;;;;;;;4.75;3.55;;;11.00;97.80;;;;;;4956790;28;20083;-78
2023/02/08 12:49:25;;;;;;;4.18;3.33;;;11.30;98.30;;;;;;4927497;29;20059;-78
2023/02/08 12:52:04;;;;;;;5.35;4.65;;;11.60;97.00;;;;;;4911943;29;20416;-78
2023/02/08 12:54:57;;;;;;;6.65;4.68;;;11.80;96.60;;;;;;4936343;29;20583;-79
2023/02/08 12:57:24;;;;;;;4.65;4.25;;;12.00;96.40;;;;;;4962728;28;20082;-79
2023/02/08 13:00:14;;;;;;;4.65;3.97;;;12.20;96.90;;;;;;4969558;28;20067;-79
2023/02/08 13:02:45;;;;;;;4.57;3.80;;;12.60;95.80;;;;;;4937216;28;20663;-79
2023/02/08 13:05:19;;;;;;;4.45;3.92;;;12.80;94.70;;;;;;4969152;28;20403;-79
2023/02/08 13:07:49;;;;;;;4.85;4.20;;;13.00;93.60;;;;;;4953342;28;20051;-79
2023/02/08 13:10:25;;;;;;;5.18;4.30;;;13.00;93.30;;;;;;4946102;28;20142;-79
2023/02/08 13:13:17;;;;;;;6.60;4.60;;;13.00;92.20;;;;;;4940471;28;20055;-78
2023/02/08 13:15:56;;;;;;;5.63;4.40;;;12.90;92.40;;;;;;4925568;28;20090;-79
2023/02/08 13:18:34;;;;;;;4.75;3.88;;;12.90;92.30;;;;;;4939533;29;20058;-79